CheckWX is a tool to help pilots better visualize weather data.  It is not intended as a substitute for an official pre-flight weather briefing.

09:43:56 UTC

LQSA METAR
Sarajevo International Airport
Sarajevo, Bosnia and Herzegovina
Current

14 mins ago

LQSA 180930Z VRB02KT 9999 FEW060 15/10 Q1019 NOSIG
Observed
Oct-18 @ 09:30 UTC
Wind
  • Variable at 2 KTS
Visibility
10,000+ meters
Flight Rules
VFR
Cloud Levels
  • Few at 6,000' AGL
Temperature
15°C / 59°F
Dewpoint
10°C / 50°F
Humidity
72%
Altimeter
30.09" Hg
Pressure
1018.92 hPa
Previous

44 mins ago

LQSA 180900Z VRB02KT 9999 FEW055 14/10 Q1020 NOSIG
Observed
Oct-18 @ 09:00 UTC
Wind
  • Variable at 2 KTS
Visibility
10,000+ meters
Flight Rules
VFR
Cloud Levels
  • Few at 5,500' AGL
Temperature
14°C / 57°F
Dewpoint
10°C / 50°F
Humidity
77%
Altimeter
30.12" Hg
Pressure
1019.92 hPa
Previous

1 hour ago

LQSA 180830Z VRB01KT 7000 FEW008 SCT055 12/10 Q1020 NOSIG
Observed
Oct-18 @ 08:30 UTC
Wind
  • Variable at 1 KTS
Visibility
7,000 meters
Flight Rules
MVFR
Cloud Levels
  • Few at 800' AGL
  • Scattered at 5,500' AGL
Temperature
12°C / 54°F
Dewpoint
10°C / 50°F
Humidity
88%
Altimeter
30.12" Hg
Pressure
1019.92 hPa